Time;durP1;ratioP1;P1;durP2;ratioP2;P2;SDS_P1;SDS_P2;PMS_P1;PMS_P2;Temp;Humidity;BMP_temperature;BMP_pressure;BME280_temperature;BME280_humidity;BME280_pressure;Samples;Min_cycle;Max_cycle;Signal;HPM_P1;HPM_P2
2021/12/01 00:00:18;;;;;;;1.58;0.70;;;;;;;-0.34;68.32;96572.31;5029590;28;20462;-53
2021/12/01 00:02:45;;;;;;;1.20;1.00;;;;;;;-0.39;68.72;96570.09;5031236;28;20025;-54
2021/12/01 00:05:11;;;;;;;1.35;0.70;;;;;;;-0.37;68.49;96556.81;5030752;28;20084;-51
2021/12/01 00:07:37;;;;;;;1.52;0.90;;;;;;;-0.41;68.27;96573.84;5031035;28;20033;-52
2021/12/01 00:10:06;;;;;;;1.23;1.05;;;;;;;-0.45;68.87;96568.84;5030128;28;20116;-53
2021/12/01 00:12:31;;;;;;;1.33;0.90;;;;;;;-0.46;69.08;96567.19;5031261;28;20963;-55
2021/12/01 00:14:57;;;;;;;2.40;1.23;;;;;;;-0.48;68.96;96589.31;5030700;28;20025;-53
2021/12/01 00:17:23;;;;;;;2.22;1.05;;;;;;;-0.53;69.34;96579.19;5030376;28;20045;-52
2021/12/01 00:19:48;;;;;;;1.70;1.00;;;;;;;-0.61;69.61;96573.78;5028676;28;20469;-54
2021/12/01 00:22:14;;;;;;;2.20;0.88;;;;;;;-0.67;69.68;96580.41;5031077;28;20033;-56
2021/12/01 00:24:40;;;;;;;1.35;1.02;;;;;;;-0.61;69.92;96587.75;5029470;28;20083;-54
2021/12/01 00:27:06;;;;;;;1.90;1.33;;;;;;;-0.64;70.00;96597.69;5029436;28;20035;-51
2021/12/01 00:29:31;;;;;;;3.30;1.30;;;;;;;-0.87;70.02;96553.25;5029947;28;20049;-53
2021/12/01 00:31:57;;;;;;;5.78;1.65;;;;;;;-0.88;70.89;96551.59;5029946;28;20095;-54
2021/12/01 00:34:23;;;;;;;1.58;1.17;;;;;;;-0.58;70.40;96599.78;5031285;28;20052;-54
2021/12/01 00:36:48;;;;;;;2.08;1.38;;;;;;;-0.59;70.37;96616.53;5032291;28;20029;-53
2021/12/01 00:39:14;;;;;;;3.35;1.20;;;;;;;-0.56;70.20;96605.75;5033578;28;20037;-53
2021/12/01 00:41:39;;;;;;;2.63;1.42;;;;;;;-0.60;70.56;96604.34;5033453;28;20056;-55
2021/12/01 00:44:07;;;;;;;1.52;1.15;;;;;;;-0.62;71.08;96614.97;5033425;28;20025;-57
2021/12/01 00:46:40;;;;;;;1.88;1.10;;;;;;;-0.89;70.60;96560.44;5033938;28;20470;-56
2021/12/01 00:49:06;;;;;;;1.58;1.10;;;;;;;-0.61;70.37;96608.75;5033377;28;20037;-54
2021/12/01 00:51:32;;;;;;;1.77;1.00;;;;;;;-0.68;70.36;96599.75;5033322;28;20032;-54
2021/12/01 00:53:58;;;;;;;2.72;1.00;;;;;;;-0.65;70.08;96604.75;5037418;28;20021;-51
2021/12/01 00:56:23;;;;;;;2.20;1.20;;;;;;;-0.60;70.40;96614.84;5053516;28;20039;-52
2021/12/01 00:58:50;;;;;;;1.58;1.10;;;;;;;-0.61;69.86;96615.81;5053333;28;20028;-54
2021/12/01 01:01:16;;;;;;;3.22;1.25;;;;;;;-0.64;70.24;96608.22;5049799;28;20045;-55
2021/12/01 01:03:41;;;;;;;2.45;1.00;;;;;;;-0.74;69.83;96600.28;5053617;28;20432;-52
2021/12/01 01:06:08;;;;;;;1.42;0.93;;;;;;;-0.68;69.50;96606.81;5034443;28;20034;-53
2021/12/01 01:08:34;;;;;;;1.50;0.82;;;;;;;-0.77;69.58;96600.56;5033177;28;20030;-54
2021/12/01 01:16:22;;;;;;;1.92;1.02;;;;;;;-0.70;69.81;96622.72;5047958;28;20029;-55
2021/12/01 01:18:59;;;;;;;1.58;0.70;;;;;;;-0.70;70.28;96624.50;5052621;28;20037;-56
2021/12/01 01:21:28;;;;;;;1.65;0.70;;;;;;;-0.76;70.18;96624.06;5052471;28;20040;-55
2021/12/01 01:23:54;;;;;;;2.78;0.80;;;;;;;-0.92;70.17;96598.28;5052731;28;20489;-56
2021/12/01 01:26:21;;;;;;;1.10;0.75;;;;;;;-0.80;69.93;96633.16;5039390;28;20045;-55
2021/12/01 01:28:48;;;;;;;1.25;0.75;;;;;;;-1.01;70.13;96589.41;5032691;28;20037;-52
2021/12/01 01:31:13;;;;;;;3.70;0.80;;;;;;;-0.84;70.44;96612.53;5032845;28;20045;-54
2021/12/01 01:33:40;;;;;;;1.33;0.88;;;;;;;-0.81;69.96;96626.25;5032397;28;20064;-53
2021/12/01 01:36:06;;;;;;;1.70;0.95;;;;;;;-0.80;69.91;96633.16;5039208;28;20399;-52
2021/12/01 01:38:32;;;;;;;4.43;1.33;;;;;;;-0.81;70.39;96628.88;5052765;28;20033;-57
2021/12/01 01:41:03;;;;;;;0.90;0.80;;;;;;;-0.79;70.27;96628.75;5052181;28;20056;-54
2021/12/01 01:43:29;;;;;;;3.10;0.90;;;;;;;-0.85;70.16;96627.47;5052263;28;20041;-51
2021/12/01 01:45:56;;;;;;;1.98;1.15;;;;;;;-0.82;70.56;96637.72;5050609;28;20060;-53
2021/12/01 01:48:30;;;;;;;3.70;1.10;;;;;;;-0.88;70.80;96625.13;5031812;28;20033;-58
2021/12/01 01:50:57;;;;;;;1.95;1.05;;;;;;;-0.89;70.70;96633.97;5032094;28;20072;-55
2021/12/01 01:53:24;;;;;;;2.67;0.80;;;;;;;-0.88;70.10;96635.63;5031359;28;20026;-55
2021/12/01 01:55:53;;;;;;;1.30;0.90;;;;;;;-1.04;70.34;96615.91;5032181;28;20040;-54
2021/12/01 01:58:21;;;;;;;2.50;1.15;;;;;;;-0.87;70.82;96634.66;5049158;28;20040;-56
2021/12/01 02:00:57;;;;;;;2.55;0.80;;;;;;;-0.89;70.52;96633.97;5052468;28;20033;-53
2021/12/01 02:03:23;;;;;;;1.58;0.90;;;;;;;-0.81;70.95;96644.63;5052367;28;20031;-54
2021/12/01 02:05:50;;;;;;;1.40;1.20;;;;;;;-0.82;70.26;96640.34;5051775;28;20036;-51
2021/12/01 02:08:19;;;;;;;1.42;0.98;;;;;;;-0.82;70.66;96644.78;5050134;28;20431;-53
2021/12/01 02:10:48;;;;;;;1.52;1.00;;;;;;;-0.83;70.37;96654.44;5052330;28;20056;-53
2021/12/01 02:13:19;;;;;;;1.92;0.95;;;;;;;-0.87;70.43;96648.63;5052329;28;20021;-52
2021/12/01 02:15:45;;;;;;;1.02;0.70;;;;;;;-0.83;70.57;96654.44;5051777;28;20433;-55
2021/12/01 02:18:11;;;;;;;2.92;1.05;;;;;;;-0.82;71.09;96664.00;5049745;28;20064;-56
2021/12/01 02:20:37;;;;;;;1.33;0.80;;;;;;;-0.77;70.69;96661.78;5052147;28;20075;-57
2021/12/01 02:23:03;;;;;;;1.63;0.70;;;;;;;-0.79;70.55;96662.91;5051751;28;20512;-52
2021/12/01 02:25:29;;;;;;;1.63;0.90;;;;;;;-0.81;70.62;96660.41;5051276;28;20039;-54
2021/12/01 02:27:56;;;;;;;1.58;0.60;;;;;;;-0.78;70.72;96661.94;5049679;28;20047;-55
2021/12/01 02:30:23;;;;;;;1.45;0.70;;;;;;;-0.77;70.62;96658.34;5051834;28;20041;-54
2021/12/01 02:32:50;;;;;;;2.92;0.80;;;;;;;-0.98;70.39;96625.06;5051735;28;20048;-55
2021/12/01 02:35:16;;;;;;;1.63;0.95;;;;;;;-1.01;70.76;96641.09;5049889;28;20154;-55
2021/12/01 02:37:42;;;;;;;2.50;0.90;;;;;;;-0.82;70.45;96661.38;5051220;28;20167;-58
2021/12/01 02:40:08;;;;;;;2.20;1.08;;;;;;;-0.81;70.68;96672.72;5049852;28;20036;-54
2021/12/01 02:42:34;;;;;;;2.15;0.90;;;;;;;-0.88;70.30;96661.91;5051639;28;20484;-50
2021/12/01 02:45:00;;;;;;;1.00;0.77;;;;;;;-0.81;70.03;96672.72;5050706;28;20033;-51
2021/12/01 02:47:26;;;;;;;1.05;0.80;;;;;;;-0.80;70.22;96675.19;5050876;28;20477;-52
2021/12/01 02:49:54;;;;;;;1.00;0.73;;;;;;;-0.79;69.62;96673.41;5024728;28;20026;-52
2021/12/01 02:52:21;;;;;;;2.28;0.98;;;;;;;-0.84;69.42;96671.19;5037458;28;20488;-52
2021/12/01 02:54:46;;;;;;;1.95;0.90;;;;;;;-0.87;69.40;96677.50;5049683;28;20032;-54
2021/12/01 02:57:12;;;;;;;1.65;0.70;;;;;;;-0.87;69.68;96674.06;5050849;28;20041;-54
2021/12/01 02:59:39;;;;;;;1.90;0.70;;;;;;;-0.87;69.76;96679.31;5050803;28;20025;-54
2021/12/01 03:02:05;;;;;;;1.08;0.85;;;;;;;-0.87;70.06;96681.94;5050591;28;20051;-55
2021/12/01 03:04:31;;;;;;;1.67;0.90;;;;;;;-0.88;69.53;96677.66;5030909;28;20025;-55
2021/12/01 03:06:57;;;;;;;1.45;0.77;;;;;;;-0.90;69.71;96687.47;5046251;28;20037;-54
2021/12/01 03:09:23;;;;;;;2.25;1.02;;;;;;;-0.92;69.80;96673.63;5029494;28;20026;-57
2021/12/01 03:11:50;;;;;;;1.90;1.00;;;;;;;-0.99;69.53;96673.31;5030958;28;20041;-52
2021/12/01 03:14:17;;;;;;;2.72;0.98;;;;;;;-0.96;69.86;96686.19;5032099;28;20026;-52
2021/12/01 03:16:44;;;;;;;2.03;1.00;;;;;;;-0.89;69.41;96686.50;5030553;28;20037;-53
2021/12/01 03:19:10;;;;;;;2.75;1.08;;;;;;;-0.97;69.59;96686.28;5031192;28;20034;-54
2021/12/01 03:21:37;;;;;;;1.58;1.13;;;;;;;-0.97;69.77;96678.41;5030396;28;20480;-53
2021/12/01 03:24:04;;;;;;;1.80;0.98;;;;;;;-0.94;69.70;96683.44;5031297;28;20462;-56
2021/12/01 03:26:30;;;;;;;3.78;1.00;;;;;;;-1.08;69.80;96667.03;5029591;28;20075;-53
2021/12/01 03:28:56;;;;;;;3.28;0.95;;;;;;;-0.94;69.83;96697.38;5030607;28;20029;-55
2021/12/01 03:31:22;;;;;;;1.90;1.10;;;;;;;-0.94;69.81;96688.69;5030399;28;20088;-54
2021/12/01 03:33:48;;;;;;;1.65;1.15;;;;;;;-1.26;69.57;96644.94;5031916;28;20450;-55
2021/12/01 03:36:13;;;;;;;2.15;0.70;;;;;;;-0.96;69.50;96698.50;5050433;28;20064;-57
2021/12/01 03:38:39;;;;;;;2.58;1.10;;;;;;;-0.97;69.68;96688.91;5049086;28;20033;-55
2021/12/01 03:41:05;;;;;;;1.80;0.80;;;;;;;-0.98;69.74;96697.75;5050942;28;20104;-55
2021/12/01 03:43:30;;;;;;;3.33;1.00;;;;;;;-1.02;69.86;96691.94;5049923;28;20021;-55
2021/12/01 03:45:56;;;;;;;3.78;1.35;;;;;;;-0.94;70.11;96672.94;5046692;28;20033;-55
2021/12/01 03:48:23;;;;;;;1.02;0.80;;;;;;;-0.95;69.66;96679.97;5051182;28;20079;-54
2021/12/01 03:50:50;;;;;;;1.83;1.00;;;;;;;-1.02;70.16;96679.63;5050489;28;20044;-56
2021/12/01 03:53:18;;;;;;;1.10;0.80;;;;;;;-0.94;69.78;96688.69;5050095;28;20031;-52
2021/12/01 03:55:43;;;;;;;2.08;0.88;;;;;;;-0.95;69.69;96687.84;5049485;28;20033;-54
2021/12/01 03:58:09;;;;;;;3.40;0.90;;;;;;;-0.96;69.67;96694.06;5049533;28;20044;-57
2021/12/01 04:00:35;;;;;;;1.73;1.20;;;;;;;-0.97;69.72;96683.66;5050107;28;20100;-53
2021/12/01 04:03:01;;;;;;;4.38;1.15;;;;;;;-0.94;69.88;96694.75;5050133;28;20381;-51
2021/12/01 04:05:27;;;;;;;1.50;1.00;;;;;;;-0.91;69.79;96699.75;5048578;28;20025;-53
2021/12/01 04:07:54;;;;;;;1.55;1.10;;;;;;;-0.90;69.94;96700.59;5050778;28;20500;-53
2021/12/01 04:10:20;;;;;;;3.45;1.30;;;;;;;-0.89;70.01;96710.13;5050074;28;20040;-56
2021/12/01 04:12:46;;;;;;;2.47;1.77;;;;;;;-0.95;69.85;96692.28;5053166;28;20218;-54
2021/12/01 04:15:13;;;;;;;2.75;1.30;;;;;;;-1.07;69.99;96662.63;5054360;28;20112;-53
2021/12/01 04:17:41;;;;;;;3.13;1.38;;;;;;;-0.84;70.12;96721.09;5052637;28;20477;-54
2021/12/01 04:20:07;;;;;;;2.45;1.55;;;;;;;-0.85;69.52;96706.28;5053874;28;20037;-55
2021/12/01 04:22:33;;;;;;;2.92;1.20;;;;;;;-1.03;69.77;96701.59;5052448;28;20033;-54
2021/12/01 04:24:59;;;;;;;2.60;1.40;;;;;;;-0.89;69.40;96715.38;5053972;28;20041;-56
2021/12/01 04:27:24;;;;;;;2.33;1.20;;;;;;;-0.94;70.28;96713.13;5052625;28;20025;-55
2021/12/01 04:29:50;;;;;;;4.25;1.30;;;;;;;-0.92;69.38;96708.59;5053316;28;20075;-49
2021/12/01 04:32:16;;;;;;;1.73;0.98;;;;;;;-0.90;69.61;96722.41;5053277;28;20471;-53
2021/12/01 04:34:42;;;;;;;2.97;1.73;;;;;;;-0.98;69.66;96703.00;5053676;28;20041;-51
2021/12/01 04:37:08;;;;;;;5.28;1.38;;;;;;;-1.01;70.17;96706.75;5052017;28;20029;-54
2021/12/01 04:39:34;;;;;;;3.95;1.35;;;;;;;-0.98;69.77;96711.72;5053567;28;20171;-49
2021/12/01 04:42:06;;;;;;;4.28;1.45;;;;;;;-1.05;69.69;96708.78;5053062;28;20466;-52
2021/12/01 04:44:36;;;;;;;3.50;1.50;;;;;;;-1.02;69.69;96734.78;5053698;28;20060;-50
2021/12/01 04:47:04;;;;;;;2.40;1.30;;;;;;;-1.08;70.15;96729.22;5053479;28;20075;-53
2021/12/01 04:49:37;;;;;;;2.38;1.30;;;;;;;-1.08;69.94;96735.28;5034448;28;20033;-54
2021/12/01 04:52:03;;;;;;;3.28;1.67;;;;;;;-1.23;69.84;96720.81;5033133;28;20530;-53
2021/12/01 04:54:29;;;;;;;3.05;1.52;;;;;;;-1.18;70.56;96719.47;5033581;28;20354;-53
2021/12/01 04:56:56;;;;;;;4.15;1.50;;;;;;;-1.15;70.28;96726.28;5033732;28;20033;-56
2021/12/01 04:59:22;;;;;;;2.50;1.58;;;;;;;-1.33;69.80;96695.31;5034196;28;20083;-53
2021/12/01 05:01:51;;;;;;;3.25;1.60;;;;;;;-1.13;70.28;96734.84;5031759;28;20041;-53
2021/12/01 05:04:16;;;;;;;5.95;2.00;;;;;;;-1.13;70.52;96737.47;5031393;28;20095;-53
2021/12/01 05:06:42;;;;;;;3.75;1.60;;;;;;;-1.11;69.93;96735.56;5032656;28;20029;-52
2021/12/01 05:09:08;;;;;;;4.82;1.90;;;;;;;-1.07;70.23;96749.28;5051544;28;20029;-55
2021/12/01 05:11:34;;;;;;;2.80;1.55;;;;;;;-1.14;70.13;96741.06;5052540;28;20036;-51
2021/12/01 05:14:00;;;;;;;2.88;1.70;;;;;;;-1.07;69.55;96760.59;5053152;28;20028;-51
2021/12/01 05:16:25;;;;;;;3.42;1.77;;;;;;;-1.11;69.75;96761.81;5052745;28;20029;-57
2021/12/01 05:18:51;;;;;;;2.35;1.77;;;;;;;-1.10;70.32;96752.97;5050782;28;20024;-54
2021/12/01 05:21:17;;;;;;;2.75;1.55;;;;;;;-1.21;69.90;96748.59;5053142;28;20029;-53
2021/12/01 05:23:43;;;;;;;3.25;1.80;;;;;;;-1.09;69.56;96756.41;5050974;28;20483;-53
2021/12/01 05:26:10;;;;;;;2.70;1.58;;;;;;;-1.09;69.46;96767.78;5052497;28;20120;-56
2021/12/01 05:28:37;;;;;;;2.33;1.42;;;;;;;-1.14;69.74;96779.59;5036241;28;20049;-57
2021/12/01 05:31:02;;;;;;;4.85;1.75;;;;;;;-1.11;69.92;96772.31;5030921;28;20045;-57
2021/12/01 05:33:28;;;;;;;3.38;2.00;;;;;;;-1.10;69.98;96781.84;5033020;28;20052;-58
2021/12/01 05:35:54;;;;;;;3.85;2.10;;;;;;;-1.08;69.71;96774.69;5032952;28;20474;-56
2021/12/01 05:38:19;;;;;;;8.50;1.90;;;;;;;-1.03;69.69;96772.50;5033443;28;20095;-53
2021/12/01 05:40:50;;;;;;;4.80;2.25;;;;;;;-1.07;69.30;96783.41;5031937;28;20060;-55
2021/12/01 05:43:17;;;;;;;4.45;1.90;;;;;;;-1.08;69.91;96776.50;5032800;28;20029;-56
2021/12/01 05:45:43;;;;;;;4.20;2.20;;;;;;;-1.09;69.62;96803.69;5032517;28;20033;-56
2021/12/01 05:48:08;;;;;;;3.55;1.90;;;;;;;-1.09;69.46;96790.56;5039440;28;20028;-55
2021/12/01 05:50:34;;;;;;;3.65;2.00;;;;;;;-1.10;69.72;96796.75;5051948;28;20086;-54
2021/12/01 05:53:00;;;;;;;3.88;1.63;;;;;;;-1.11;69.81;96803.81;5052894;28;20025;-56
2021/12/01 05:55:25;;;;;;;3.03;1.85;;;;;;;-1.13;69.68;96799.66;5052263;28;20083;-56
2021/12/01 05:57:51;;;;;;;4.15;1.90;;;;;;;-1.23;69.70;96783.81;5049786;28;20849;-54
2021/12/01 06:00:17;;;;;;;3.10;1.77;;;;;;;-1.11;69.36;96798.56;5051902;28;20037;-54
2021/12/01 06:02:43;;;;;;;4.07;1.80;;;;;;;-1.12;69.45;96809.19;5051972;28;20036;-55
2021/12/01 06:05:09;;;;;;;3.30;1.90;;;;;;;-1.06;69.26;96806.09;5051724;28;20029;-53
2021/12/01 06:07:34;;;;;;;3.15;1.67;;;;;;;-1.13;69.27;96804.91;5051577;28;20082;-56
2021/12/01 06:10:02;;;;;;;2.65;1.80;;;;;;;-1.06;69.48;96809.53;5050393;28;20376;-55
2021/12/01 06:12:29;;;;;;;3.45;1.60;;;;;;;-1.04;69.08;96807.59;5052470;28;20036;-54
2021/12/01 06:14:56;;;;;;;4.63;1.85;;;;;;;-0.99;69.00;96822.16;5051671;28;20089;-54
2021/12/01 06:17:21;;;;;;;2.95;1.73;;;;;;;-0.97;68.64;96814.97;5051512;28;20025;-56
2021/12/01 06:19:47;;;;;;;3.17;1.80;;;;;;;-1.00;68.77;96816.06;5050033;28;20028;-55
2021/12/01 06:22:13;;;;;;;5.22;2.30;;;;;;;-1.00;68.75;96826.56;5050742;28;20029;-54
2021/12/01 06:24:38;;;;;;;2.42;1.65;;;;;;;-0.99;68.86;96820.38;5051476;28;20063;-51
2021/12/01 06:27:05;;;;;;;4.65;2.30;;;;;;;-0.99;68.75;96827.41;5051322;28;20445;-54
2021/12/01 06:29:31;;;;;;;3.30;2.08;;;;;;;-0.96;68.65;96827.19;5049823;28;20071;-56
2021/12/01 06:31:56;;;;;;;2.92;1.70;;;;;;;-0.96;68.32;96829.81;5052042;28;20041;-60
2021/12/01 06:34:22;;;;;;;3.42;2.03;;;;;;;-0.97;68.61;96833.34;5050970;28;20098;-56
2021/12/01 06:36:48;;;;;;;4.57;2.10;;;;;;;-1.22;68.30;96782.84;5051237;28;20037;-54
2021/12/01 06:39:14;;;;;;;3.17;2.10;;;;;;;-1.16;68.67;96819.94;5041096;28;20030;-55
2021/12/01 06:41:39;;;;;;;2.85;1.80;;;;;;;-0.98;68.11;96839.56;5031743;28;20033;-59
2021/12/01 06:44:05;;;;;;;2.65;1.92;;;;;;;-1.02;68.62;96833.75;5031514;28;20033;-54
2021/12/01 06:46:31;;;;;;;5.32;2.25;;;;;;;-1.09;68.43;96830.78;5031118;28;20068;-51
2021/12/01 06:48:57;;;;;;;5.07;2.08;;;;;;;-1.04;68.73;96843.56;5032090;28;20385;-52
2021/12/01 06:51:23;;;;;;;7.93;2.17;;;;;;;-1.01;68.72;96841.50;5031520;28;20474;-55
2021/12/01 06:53:50;;;;;;;2.78;2.15;;;;;;;-0.96;68.53;96853.44;5030749;28;20393;-56
2021/12/01 06:56:16;;;;;;;3.97;2.15;;;;;;;-0.92;68.24;96849.59;5030840;28;20032;-55
2021/12/01 06:58:42;;;;;;;4.85;2.50;;;;;;;-0.96;68.27;96848.19;5030819;28;20532;-56
2021/12/01 07:01:08;;;;;;;3.58;2.00;;;;;;;-0.91;68.20;96862.59;5031335;28;20108;-54
2021/12/01 07:03:35;;;;;;;3.67;2.00;;;;;;;-0.92;67.71;96865.34;5030833;28;20112;-56
2021/12/01 07:06:01;;;;;;;3.60;1.98;;;;;;;-0.91;67.72;96883.59;5031102;28;20041;-56
2021/12/01 07:08:27;;;;;;;4.05;2.08;;;;;;;-0.88;68.25;96880.72;5032285;28;20052;-51
2021/12/01 07:10:52;;;;;;;3.60;1.90;;;;;;;-0.85;67.64;96871.75;5039044;28;20021;-54
2021/12/01 07:13:18;;;;;;;4.70;2.30;;;;;;;-0.87;67.72;96869.25;5038835;28;20033;-55
2021/12/01 07:15:44;;;;;;;3.83;2.20;;;;;;;-0.82;67.68;96876.75;5040500;28;20379;-52
2021/12/01 07:18:10;;;;;;;4.50;1.90;;;;;;;-0.99;67.14;96854.50;5038988;28;20029;-54
2021/12/01 07:20:36;;;;;;;5.95;2.17;;;;;;;-0.86;67.27;96864.84;5037229;28;20057;-52
2021/12/01 07:23:02;;;;;;;6.68;2.45;;;;;;;-0.79;67.51;96891.47;5041325;28;20047;-57
2021/12/01 07:25:30;;;;;;;3.95;2.40;;;;;;;-1.04;67.44;96851.44;5038333;28;20462;-57
2021/12/01 07:27:55;;;;;;;4.50;2.58;;;;;;;-0.81;68.29;96891.56;5038538;28;20914;-58
2021/12/01 07:30:21;;;;;;;4.88;2.47;;;;;;;-0.78;68.01;96888.69;5039906;28;20049;-55
2021/12/01 07:32:49;;;;;;;5.22;2.47;;;;;;;-0.75;67.79;96898.13;5038453;28;20500;-56
2021/12/01 07:35:15;;;;;;;4.85;2.33;;;;;;;-0.69;67.22;96897.63;5047379;28;20112;-57
2021/12/01 07:37:40;;;;;;;3.20;2.13;;;;;;;-0.68;67.44;96903.72;5049036;28;20121;-55
2021/12/01 07:40:06;;;;;;;5.65;2.42;;;;;;;-0.66;67.23;96912.31;5050852;28;20120;-56
2021/12/01 07:42:32;;;;;;;6.97;2.30;;;;;;;-0.64;67.42;96913.00;5035763;28;20109;-54
2021/12/01 07:44:58;;;;;;;3.90;2.28;;;;;;;-0.60;67.37;96917.06;5029291;28;20525;-54
2021/12/01 07:47:24;;;;;;;4.70;2.53;;;;;;;-0.88;66.83;96875.47;5047037;28;20035;-58
2021/12/01 07:49:50;;;;;;;4.57;2.30;;;;;;;-0.66;66.77;96922.81;5048510;28;20040;-61
2021/12/01 07:52:15;;;;;;;5.63;2.17;;;;;;;-0.90;66.79;96894.94;5048966;28;20079;-59
2021/12/01 07:54:41;;;;;;;4.22;2.60;;;;;;;-0.66;67.30;96922.81;5069804;28;20108;-59
2021/12/01 07:57:08;;;;;;;9.13;2.72;;;;;;;-0.91;67.60;96883.59;5061418;28;20060;-59
2021/12/01 07:59:35;;;;;;;3.58;2.17;;;;;;;-0.58;67.17;96933.53;5062328;28;20036;-58
2021/12/01 08:02:01;;;;;;;4.13;2.50;;;;;;;-0.49;66.98;96930.13;5063525;28;20095;-61
2021/12/01 08:04:26;;;;;;;6.43;2.70;;;;;;;-0.66;66.89;96923.63;5046605;28;20025;-58
2021/12/01 08:06:54;;;;;;;3.85;2.47;;;;;;;-0.58;66.91;96936.16;5060550;28;20029;-55
2021/12/01 08:09:20;;;;;;;8.55;3.08;;;;;;;-0.56;67.05;96928.97;5067012;28;20055;-56
2021/12/01 08:11:46;;;;;;;5.45;2.55;;;;;;;-0.52;67.32;96938.28;5058976;28;20037;-57
2021/12/01 08:14:11;;;;;;;2.92;2.05;;;;;;;-0.50;66.56;96936.34;5054950;28;20032;-57
2021/12/01 08:16:37;;;;;;;6.03;2.55;;;;;;;-0.43;66.42;96944.56;5066824;28;20108;-52
2021/12/01 08:19:04;;;;;;;4.50;2.28;;;;;;;-0.45;67.17;96936.84;5048908;28;20492;-58
2021/12/01 08:21:30;;;;;;;5.55;2.80;;;;;;;-0.42;66.82;96951.50;5060126;28;20035;-62
2021/12/01 08:23:56;;;;;;;8.48;4.28;;;;;;;-0.41;66.72;96958.41;5049526;28;20033;-58
2021/12/01 08:26:22;;;;;;;5.93;2.70;;;;;;;-0.41;66.70;96952.34;5050689;28;20493;-59
2021/12/01 08:28:48;;;;;;;7.32;2.72;;;;;;;-0.35;66.86;96957.94;5058842;28;20111;-58
2021/12/01 08:31:15;;;;;;;5.60;2.67;;;;;;;-0.34;66.61;96956.13;5063035;28;20140;-56
2021/12/01 08:33:42;;;;;;;4.47;2.05;;;;;;;-0.31;67.10;96954.09;5061558;28;20041;-57
2021/12/01 08:36:11;;;;;;;5.20;2.60;;;;;;;-0.26;66.51;96951.06;5056443;28;20033;-59
2021/12/01 08:38:39;;;;;;;6.45;2.47;;;;;;;-0.21;66.62;96954.16;5052013;28;20028;-60
2021/12/01 08:41:06;;;;;;;4.22;2.65;;;;;;;-0.19;66.62;96952.25;5061239;28;20465;-58
2021/12/01 08:43:33;;;;;;;4.65;2.40;;;;;;;-0.14;66.18;96957.09;5060728;28;20506;-57
2021/12/01 08:46:00;;;;;;;6.13;2.55;;;;;;;-0.19;65.80;96965.41;5067021;28;20902;-51
2021/12/01 08:48:26;;;;;;;5.20;2.60;;;;;;;-0.33;66.54;96942.03;5055188;28;20033;-56
2021/12/01 08:50:51;;;;;;;8.10;2.72;;;;;;;-0.27;66.39;96945.94;5066737;28;20028;-59
2021/12/01 08:53:17;;;;;;;5.90;2.53;;;;;;;-0.23;66.39;96956.09;5061934;28;20025;-59
2021/12/01 08:55:45;;;;;;;4.75;2.33;;;;;;;-0.24;66.39;96949.16;5049606;28;20397;-61
2021/12/01 08:58:13;;;;;;;5.32;2.60;;;;;;;-0.31;65.85;96955.88;5065585;28;20381;-63
2021/12/01 09:00:44;;;;;;;4.28;2.20;;;;;;;-0.23;65.80;96971.03;5057265;28;20020;-63
2021/12/01 09:03:12;;;;;;;5.68;2.38;;;;;;;-0.53;65.82;96933.97;5064302;28;20035;-60
2021/12/01 09:05:39;;;;;;;8.75;2.58;;;;;;;-0.37;66.33;96977.41;5052685;28;20039;-61
2021/12/01 09:08:05;;;;;;;4.32;2.17;;;;;;;-0.35;66.41;96964.97;5064203;28;20128;-57
2021/12/01 09:10:31;;;;;;;6.20;2.85;;;;;;;-0.36;66.15;96972.03;5054815;28;20440;-59
2021/12/01 09:12:57;;;;;;;6.20;2.88;;;;;;;-0.36;66.39;96976.47;5065444;28;20031;-60
2021/12/01 09:15:23;;;;;;;5.20;2.47;;;;;;;-0.38;66.73;96979.19;5044123;28;20476;-62
2021/12/01 09:17:49;;;;;;;8.70;3.10;;;;;;;-0.38;66.49;96975.75;5065087;28;20028;-59
2021/12/01 09:20:15;;;;;;;8.80;3.28;;;;;;;-0.61;67.07;96934.59;5038486;28;20028;-59
2021/12/01 09:22:41;;;;;;;5.40;3.00;;;;;;;-0.28;66.39;96984.53;5050324;28;20032;-56
2021/12/01 09:25:07;;;;;;;7.15;2.67;;;;;;;-0.23;66.11;96987.66;5061258;28;20055;-58
2021/12/01 09:27:33;;;;;;;5.78;3.08;;;;;;;-0.22;66.01;96977.94;5067505;28;20407;-58
2021/12/01 09:29:59;;;;;;;7.97;2.90;;;;;;;-0.21;66.46;96975.22;5057213;28;20462;-61
2021/12/01 09:32:24;;;;;;;4.75;2.60;;;;;;;-0.19;65.92;96982.94;5068696;28;20051;-57
2021/12/01 09:34:50;;;;;;;4.28;2.65;;;;;;;-0.21;66.00;96985.72;5058139;28;20048;-55
2021/12/01 09:37:16;;;;;;;6.43;2.78;;;;;;;-0.12;66.09;96991.19;5061563;28;20036;-59
2021/12/01 09:39:43;;;;;;;4.35;2.83;;;;;;;-0.10;65.67;96999.78;5065152;28;20028;-56
2021/12/01 09:42:09;;;;;;;4.95;2.38;;;;;;;-0.08;65.78;96995.22;5056195;28;20057;-57
2021/12/01 09:44:36;;;;;;;4.20;2.20;;;;;;;-0.12;65.54;96988.53;5053652;28;20028;-60
2021/12/01 09:47:03;;;;;;;3.22;2.17;;;;;;;-0.03;65.49;97011.44;5063308;28;20052;-58
2021/12/01 09:49:29;;;;;;;6.47;2.78;;;;;;;-0.12;65.66;96993.81;5062193;28;20431;-58
2021/12/01 09:51:55;;;;;;;3.33;2.10;;;;;;;-0.11;65.33;97000.72;5057170;28;20598;-54
2021/12/01 09:54:20;;;;;;;4.38;2.25;;;;;;;-0.15;65.73;96997.50;5058533;28;20124;-58
2021/12/01 09:56:46;;;;;;;3.35;1.90;;;;;;;-0.15;65.75;97001.00;5042357;28;20461;-58
2021/12/01 09:59:12;;;;;;;3.25;2.00;;;;;;;-0.13;65.17;97008.75;5057882;28;20036;-59
2021/12/01 10:01:38;;;;;;;5.30;2.35;;;;;;;-0.18;65.41;97006.50;5059238;28;20025;-59
2021/12/01 10:04:04;;;;;;;5.45;2.03;;;;;;;-0.17;64.66;97012.59;5067882;28;20518;-60
2021/12/01 10:06:29;;;;;;;4.25;2.00;;;;;;;-0.23;64.85;97013.94;5052287;28;20093;-56
2021/12/01 10:09:00;;;;;;;2.42;1.63;;;;;;;-0.23;65.11;97013.94;5056410;28;20115;-58
2021/12/01 10:11:34;;;;;;;3.47;1.65;;;;;;;-0.18;65.28;97024.91;5050907;28;20029;-56
2021/12/01 10:14:06;;;;;;;4.27;2.20;;;;;;;-0.20;65.15;97026.00;5045083;28;20033;-57
2021/12/01 10:16:35;;;;;;;3.22;1.77;;;;;;;-0.22;65.21;97023.50;5059253;28;20029;-53
2021/12/01 10:19:05;;;;;;;2.80;1.67;;;;;;;-0.30;64.96;97010.13;5048609;28;20542;-55
2021/12/01 10:21:41;;;;;;;3.47;1.73;;;;;;;-0.21;64.92;97022.53;5060872;28;20051;-60
2021/12/01 10:24:12;;;;;;;5.68;1.60;;;;;;;-0.18;64.98;97017.03;5058795;28;20384;-57
2021/12/01 10:26:44;;;;;;;3.80;1.77;;;;;;;-0.10;64.71;97028.69;5057678;28;20074;-57
2021/12/01 10:29:23;;;;;;;2.92;1.55;;;;;;;-0.03;64.80;97027.22;5065170;28;20476;-59
2021/12/01 10:31:54;;;;;;;8.75;2.05;;;;;;;-0.12;64.72;97028.00;5058813;28;20138;-55
2021/12/01 10:34:32;;;;;;;5.35;1.83;;;;;;;-0.11;65.03;97032.28;5065081;28;20021;-58
2021/12/01 10:37:25;;;;;;;3.28;1.52;;;;;;;-0.09;65.37;97036.47;5050887;28;20029;-55
2021/12/01 10:40:10;;;;;;;3.08;1.60;;;;;;;-0.08;64.90;97040.78;5062432;28;20116;-58
2021/12/01 10:42:53;;;;;;;2.33;1.33;;;;;;;-0.08;65.07;97046.03;5065464;28;20548;-58
2021/12/01 10:45:21;;;;;;;3.38;2.15;;;;;;;-0.18;64.82;97038.06;5038040;28;20028;-58
2021/12/01 10:47:47;;;;;;;3.78;1.80;;;;;;;-0.19;64.82;97039.03;5061056;28;20029;-56
2021/12/01 10:50:16;;;;;;;3.88;2.05;;;;;;;-0.16;64.74;97036.13;5057465;28;20037;-57
2021/12/01 10:52:47;;;;;;;6.25;1.42;;;;;;;-0.42;65.17;97009.31;5064911;28;20115;-58
2021/12/01 10:55:20;;;;;;;6.93;2.45;;;;;;;-0.20;65.19;97039.97;5053751;28;20028;-54
2021/12/01 10:57:58;;;;;;;3.53;1.95;;;;;;;-0.26;64.70;97045.72;5060633;28;20027;-57
2021/12/01 11:00:23;;;;;;;4.57;1.73;;;;;;;-0.35;64.96;97051.72;5056450;28;20431;-57
2021/12/01 11:02:50;;;;;;;2.60;1.55;;;;;;;-0.42;65.14;97055.81;5066247;28;20036;-57
2021/12/01 11:05:33;;;;;;;3.95;1.70;;;;;;;-0.42;65.83;97055.81;5054221;28;20090;-55
2021/12/01 11:08:29;;;;;;;3.28;2.40;;;;;;;-0.40;66.10;97054.72;5058085;28;20123;-56
2021/12/01 11:11:03;;;;;;;;;;;;;;;-0.23;66.15;97056.00;5063812;28;20036;-59
2021/12/01 11:13:29;;;;;;;3.75;1.67;;;;;;;-0.35;65.07;97057.84;5055454;28;19990;-60
2021/12/01 11:16:00;;;;;;;4.80;1.88;;;;;;;-0.39;65.35;97055.56;5060367;28;20429;-61
2021/12/01 11:18:28;;;;;;;4.22;1.90;;;;;;;-0.41;65.48;97057.50;5062164;28;20056;-60
2021/12/01 11:20:58;;;;;;;4.72;2.15;;;;;;;-0.40;65.70;97067.88;5053115;28;20071;-61
2021/12/01 11:23:26;;;;;;;3.17;1.70;;;;;;;-0.44;65.25;97048.91;5064398;28;20166;-56
2021/12/01 11:25:56;;;;;;;5.53;1.92;;;;;;;-0.42;64.25;97050.56;5052867;28;20031;-71
2021/12/01 11:28:27;;;;;;;4.30;2.17;;;;;;;-0.63;64.02;97040.81;5051166;28;20036;-58
2021/12/01 11:30:58;;;;;;;4.70;1.80;;;;;;;-0.44;63.93;97066.44;5065504;28;20052;-58
2021/12/01 11:33:25;;;;;;;3.90;1.88;;;;;;;-0.49;62.86;97069.44;5046812;28;20512;-60
2021/12/01 11:35:55;;;;;;;1.90;1.40;;;;;;;-0.51;62.49;97066.09;5049278;28;20052;-55
2021/12/01 11:38:21;;;;;;;3.13;1.60;;;;;;;-0.57;62.06;97077.09;5054267;28;20029;-54